Time;durP1;ratioP1;P1;durP2;ratioP2;P2;SDS_P1;SDS_P2;PMS_P1;PMS_P2;Temp;Humidity;BMP_temperature;BMP_pressure;BME280_temperature;BME280_humidity;BME280_pressure;Samples;Min_cycle;Max_cycle;Signal;HPM_P1;HPM_P2
2022/02/17 00:00:06;;;;;;;0.40;0.30;;;11.60;99.90;;;;;;5060306;28;21073;-84
2022/02/17 00:02:50;;;;;;;0.40;0.20;;;11.60;99.90;;;;;;5060163;28;21117;-84
2022/02/17 00:05:36;;;;;;;0.33;0.33;;;11.60;99.90;;;;;;5060754;28;20458;-84
2022/02/17 00:08:07;;;;;;;0.30;0.30;;;11.70;99.90;;;;;;5060001;28;21006;-84
2022/02/17 00:11:39;;;;;;;;;;;;;;;;;;;;;
2022/02/17 00:14:55;;;;;;;0.30;0.30;;;11.70;99.90;;;;;;5016872;28;20876;-84
2022/02/17 00:17:33;;;;;;;0.40;0.40;;;11.80;99.90;;;;;;5051831;28;20456;-84
2022/02/17 00:20:53;;;;;;;0.30;0.30;;;11.90;99.90;;;;;;5059884;28;20451;-84
2022/02/17 00:23:53;;;;;;;0.20;0.20;;;11.90;99.90;;;;;;5040687;28;20468;-84
2022/02/17 00:26:40;;;;;;;;;;;;;;;;;;;;;
2022/02/17 00:29:53;;;;;;;0.30;0.30;;;12.00;99.90;;;;;;5059488;28;20495;-84
2022/02/17 00:32:52;;;;;;;0.20;0.20;;;12.00;99.90;;;;;;4978252;28;21018;-83
2022/02/17 00:51:30;;;;;;;0.30;0.30;;;12.00;99.90;;;;;;5056085;28;20471;-84
2022/02/17 00:57:09;;;;;;;0.43;0.30;;;12.00;99.90;;;;;;5051711;28;20451;-83
2022/02/17 01:00:26;;;;;;;0.30;0.30;;;12.00;99.90;;;;;;5059106;28;20786;-83
2022/02/17 01:07:02;;;;;;;;;;;;;;;;;;;;;
2022/02/17 01:10:03;;;;;;;0.40;0.40;;;11.90;99.90;;;;;;5027861;28;20498;-84
2022/02/17 01:12:44;;;;;;;0.30;0.30;;;11.80;99.90;;;;;;5056787;28;20477;-83
2022/02/17 01:15:16;;;;;;;0.27;0.27;;;11.70;99.90;;;;;;5058583;28;20455;-83
2022/02/17 01:17:52;;;;;;;0.50;0.30;;;11.70;99.90;;;;;;5056621;28;20458;-83
2022/02/17 01:20:25;;;;;;;0.27;0.27;;;11.60;99.90;;;;;;5057209;28;20449;-83
2022/02/17 01:22:52;;;;;;;0.73;0.73;;;11.50;99.90;;;;;;5057914;28;20540;-84
2022/02/17 01:25:21;;;;;;;0.30;0.30;;;11.40;99.90;;;;;;5059613;28;20839;-84
2022/02/17 01:28:07;;;;;;;0.40;0.23;;;11.30;99.90;;;;;;5058627;28;20446;-84
2022/02/17 01:30:42;;;;;;;0.30;0.30;;;11.20;99.90;;;;;;5058734;28;20496;-84
2022/02/17 01:33:27;;;;;;;0.20;0.20;;;11.10;99.90;;;;;;5058416;28;20457;-84
2022/02/17 01:36:35;;;;;;;0.20;0.20;;;11.20;99.90;;;;;;5053676;28;20554;-84
2022/02/17 01:43:15;;;;;;;0.57;0.40;;;11.20;99.90;;;;;;5057161;28;20455;-83
2022/02/17 01:52:31;;;;;;;0.87;0.30;;;11.20;99.90;;;;;;5031030;28;20456;-84
2022/02/17 01:55:45;;;;;;;;;;;;;;;;;;;;;
2022/02/17 01:58:51;;;;;;;0.30;0.27;;;11.10;99.90;;;;;;5057211;28;21025;-83
2022/02/17 02:01:18;;;;;;;1.00;0.73;;;11.10;99.90;;;;;;5056135;28;20498;-84
2022/02/17 02:03:48;;;;;;;0.40;0.23;;;11.10;99.90;;;;;;5057760;28;20871;-83
2022/02/17 02:06:15;;;;;;;0.30;0.30;;;11.00;99.90;;;;;;5057192;28;20544;-84
2022/02/17 02:08:42;;;;;;;0.40;0.30;;;10.90;99.90;;;;;;5062669;28;20471;-83
2022/02/17 02:11:11;;;;;;;0.20;0.20;;;10.90;99.90;;;;;;5067418;28;20488;-83
2022/02/17 02:13:39;;;;;;;2.20;0.40;;;10.90;99.90;;;;;;5075379;28;20462;-83
2022/02/17 02:16:08;;;;;;;0.40;0.40;;;10.80;99.90;;;;;;5060484;28;20537;-84
2022/02/17 02:18:35;;;;;;;0.30;0.30;;;10.80;99.90;;;;;;5060185;28;20454;-83
2022/02/17 02:21:04;;;;;;;0.30;0.30;;;10.80;99.90;;;;;;5067102;28;20534;-84
2022/02/17 02:23:31;;;;;;;0.40;0.30;;;10.90;99.90;;;;;;5075299;28;20208;-83
2022/02/17 02:25:58;;;;;;;0.50;0.40;;;10.80;99.90;;;;;;5073899;28;20448;-83
2022/02/17 02:28:26;;;;;;;0.80;0.40;;;10.80;99.90;;;;;;5058964;28;20550;-83
2022/02/17 02:30:53;;;;;;;0.30;0.30;;;10.80;99.90;;;;;;5058636;28;20868;-84
2022/02/17 02:33:21;;;;;;;0.30;0.30;;;10.80;99.90;;;;;;5069548;28;20598;-83
2022/02/17 02:35:48;;;;;;;0.20;0.20;;;10.70;99.90;;;;;;5076073;28;20443;-83
2022/02/17 02:38:16;;;;;;;0.40;0.30;;;10.80;99.90;;;;;;5071018;28;20453;-83
2022/02/17 02:40:44;;;;;;;0.20;0.20;;;10.80;99.90;;;;;;5056937;28;20466;-83
2022/02/17 02:43:11;;;;;;;0.30;0.30;;;10.70;99.90;;;;;;5056655;28;20952;-82
2022/02/17 02:45:38;;;;;;;0.47;0.30;;;10.70;99.90;;;;;;5057098;28;20459;-82
2022/02/17 02:48:06;;;;;;;0.30;0.30;;;10.70;99.90;;;;;;5056071;28;20466;-82
2022/02/17 02:50:34;;;;;;;0.30;0.30;;;10.60;99.90;;;;;;5056084;28;20871;-82
2022/02/17 02:53:00;;;;;;;0.30;0.30;;;10.60;99.90;;;;;;5055717;28;20454;-82
2022/02/17 02:55:29;;;;;;;0.35;0.35;;;10.60;99.90;;;;;;5056672;28;20214;-83
2022/02/17 02:57:56;;;;;;;0.30;0.30;;;10.60;99.90;;;;;;5056291;28;20207;-82
2022/02/17 03:00:23;;;;;;;0.30;0.30;;;10.60;99.90;;;;;;5055138;28;20260;-83
2022/02/17 03:02:50;;;;;;;0.30;0.30;;;10.60;99.90;;;;;;5056142;28;20454;-83
2022/02/17 03:05:16;;;;;;;0.30;0.30;;;10.60;99.90;;;;;;5055361;28;20227;-82
2022/02/17 03:07:43;;;;;;;0.40;0.40;;;10.60;99.90;;;;;;5056157;28;20455;-83
2022/02/17 03:10:11;;;;;;;0.30;0.30;;;10.60;99.90;;;;;;5056090;28;20592;-83
2022/02/17 03:12:39;;;;;;;34.57;1.83;;;10.60;99.90;;;;;;5055634;28;20475;-83
2022/02/17 03:15:07;;;;;;;0.30;0.30;;;10.60;99.90;;;;;;5056267;28;20439;-83
2022/02/17 03:17:33;;;;;;;0.20;0.20;;;10.60;99.90;;;;;;5055768;28;20463;-83
2022/02/17 03:20:00;;;;;;;0.30;0.30;;;10.70;99.90;;;;;;5057377;28;20446;-83
2022/02/17 03:22:27;;;;;;;0.30;0.20;;;10.70;99.90;;;;;;5059348;28;20236;-83
2022/02/17 03:24:54;;;;;;;0.20;0.20;;;10.70;99.90;;;;;;5059421;28;20477;-83
2022/02/17 03:27:21;;;;;;;0.43;0.20;;;10.80;99.90;;;;;;5059782;28;20455;-83
2022/02/17 03:29:49;;;;;;;0.27;0.20;;;10.70;99.90;;;;;;5059330;28;20451;-83
2022/02/17 03:32:15;;;;;;;0.33;0.33;;;10.70;99.90;;;;;;5059231;28;20497;-83
2022/02/17 03:34:42;;;;;;;0.40;0.40;;;10.80;99.90;;;;;;5059549;28;21072;-83
2022/02/17 03:37:09;;;;;;;0.90;0.40;;;10.70;99.90;;;;;;5060320;28;20482;-83
2022/02/17 03:39:36;;;;;;;0.40;0.40;;;10.70;99.90;;;;;;5059959;28;20452;-83
2022/02/17 03:42:03;;;;;;;0.33;0.33;;;10.70;99.90;;;;;;5059000;28;20475;-83
2022/02/17 03:44:30;;;;;;;0.20;0.20;;;10.70;99.90;;;;;;5059088;28;20474;-83
2022/02/17 03:46:58;;;;;;;0.20;0.20;;;10.70;99.90;;;;;;5059711;28;20461;-83
2022/02/17 03:49:27;;;;;;;0.20;0.20;;;10.70;99.90;;;;;;5060254;28;20450;-83
2022/02/17 03:51:54;;;;;;;0.30;0.30;;;10.70;99.90;;;;;;5058742;28;20231;-83
2022/02/17 03:54:20;;;;;;;0.32;0.30;;;10.70;99.90;;;;;;5059412;28;20449;-83
2022/02/17 03:56:47;;;;;;;0.20;0.20;;;10.70;99.90;;;;;;5059489;28;20206;-83
2022/02/17 03:59:14;;;;;;;0.70;0.60;;;10.60;99.90;;;;;;5059735;28;20195;-83
2022/02/17 04:01:41;;;;;;;0.20;0.20;;;10.70;99.90;;;;;;5059187;28;20854;-83
2022/02/17 04:04:11;;;;;;;0.20;0.20;;;10.70;99.90;;;;;;5058898;28;20211;-83
2022/02/17 04:06:37;;;;;;;0.20;0.20;;;10.70;99.90;;;;;;5059552;28;20456;-83
2022/02/17 04:09:06;;;;;;;0.20;0.20;;;10.70;99.90;;;;;;5059270;28;20827;-83
2022/02/17 04:11:33;;;;;;;0.30;0.30;;;10.70;99.90;;;;;;5058081;28;20226;-83
2022/02/17 04:14:00;;;;;;;0.20;0.20;;;10.80;99.90;;;;;;5059337;28;20210;-83
2022/02/17 04:16:27;;;;;;;0.20;0.20;;;10.80;99.90;;;;;;5058869;28;20459;-83
2022/02/17 04:18:53;;;;;;;0.30;0.30;;;10.90;99.90;;;;;;5058650;28;20454;-83
2022/02/17 04:21:22;;;;;;;0.30;0.30;;;10.90;99.90;;;;;;5081398;22;20208;-80
2022/02/17 04:23:49;;;;;;;0.80;0.40;;;10.90;99.90;;;;;;5055440;28;20801;-80
2022/02/17 04:26:18;;;;;;;1.02;0.30;;;10.90;99.90;;;;;;5055393;28;20811;-80
2022/02/17 04:28:47;;;;;;;0.40;0.40;;;10.90;99.90;;;;;;5061485;28;20204;-82
2022/02/17 04:31:14;;;;;;;0.20;0.20;;;11.00;99.90;;;;;;5055856;28;20497;-83
2022/02/17 04:33:43;;;;;;;0.30;0.30;;;11.00;99.90;;;;;;5057642;28;20445;-82
2022/02/17 04:36:09;;;;;;;0.20;0.20;;;10.90;99.90;;;;;;5059601;28;20456;-83
2022/02/17 04:38:37;;;;;;;0.30;0.20;;;10.80;99.90;;;;;;5059175;28;20217;-83
2022/02/17 04:43:49;;;;;;;0.33;0.33;;;10.80;99.90;;;;;;5061136;28;20481;-82
2022/02/17 04:46:16;;;;;;;0.20;0.20;;;10.90;99.90;;;;;;5060029;28;20658;-82
2022/02/17 04:48:42;;;;;;;0.30;0.30;;;10.80;99.90;;;;;;5058976;28;20455;-83
2022/02/17 04:51:09;;;;;;;0.30;0.30;;;10.80;99.90;;;;;;5058822;28;20485;-80
2022/02/17 04:53:37;;;;;;;0.30;0.30;;;10.80;99.90;;;;;;5058901;28;20230;-82
2022/02/17 04:56:04;;;;;;;0.30;0.30;;;10.70;99.90;;;;;;5056995;28;20453;-81
2022/02/17 04:58:31;;;;;;;0.40;0.40;;;10.80;99.90;;;;;;5056210;28;20454;-82
2022/02/17 05:00:58;;;;;;;0.30;0.30;;;10.80;99.90;;;;;;5055613;28;20446;-81
2022/02/17 05:03:25;;;;;;;0.73;0.40;;;10.90;99.90;;;;;;5055494;28;20473;-81
2022/02/17 05:05:52;;;;;;;0.30;0.30;;;10.80;99.90;;;;;;5055696;28;20455;-81
2022/02/17 05:08:19;;;;;;;0.50;0.33;;;10.80;99.90;;;;;;5055650;28;20468;-80
2022/02/17 05:10:49;;;;;;;1.50;0.30;;;10.90;99.90;;;;;;5055213;28;20479;-80
2022/02/17 05:13:16;;;;;;;0.30;0.30;;;10.90;99.90;;;;;;5055374;28;20847;-82
2022/02/17 05:15:43;;;;;;;0.30;0.30;;;10.90;99.90;;;;;;5054929;28;20461;-81
2022/02/17 05:18:10;;;;;;;0.20;0.20;;;11.00;99.90;;;;;;5055371;28;20450;-81
2022/02/17 05:20:37;;;;;;;0.30;0.30;;;10.90;99.90;;;;;;5055243;28;20947;-81
2022/02/17 05:23:03;;;;;;;0.20;0.20;;;10.90;99.90;;;;;;5055015;28;20995;-81
2022/02/17 05:25:30;;;;;;;0.70;0.20;;;10.90;99.90;;;;;;5055106;28;20450;-81
2022/02/17 05:27:59;;;;;;;0.50;0.30;;;10.80;99.90;;;;;;5057222;28;20454;-81
2022/02/17 05:30:26;;;;;;;0.30;0.30;;;10.80;99.90;;;;;;5058310;28;20459;-80
2022/02/17 05:32:53;;;;;;;2.13;0.40;;;10.80;99.90;;;;;;5058541;28;20473;-80
2022/02/17 05:35:20;;;;;;;0.50;0.30;;;10.80;99.90;;;;;;5057576;28;20477;-80
2022/02/17 05:37:46;;;;;;;0.30;0.30;;;10.70;99.90;;;;;;5058390;28;20443;-80
2022/02/17 05:40:14;;;;;;;0.87;0.50;;;10.60;99.90;;;;;;5056972;28;20461;-80
2022/02/17 05:42:41;;;;;;;0.30;0.30;;;10.60;99.90;;;;;;5054836;28;20463;-81
2022/02/17 05:45:10;;;;;;;0.40;0.40;;;10.60;99.90;;;;;;5055126;28;20489;-81
2022/02/17 05:47:36;;;;;;;0.40;0.30;;;10.60;99.90;;;;;;5056985;28;20939;-82
2022/02/17 05:50:04;;;;;;;0.30;0.20;;;10.70;99.90;;;;;;5059667;28;20458;-80
2022/02/17 05:52:31;;;;;;;0.97;0.40;;;10.80;99.90;;;;;;5058455;28;20498;-80
2022/02/17 05:54:57;;;;;;;0.50;0.50;;;10.80;99.90;;;;;;5056767;28;20461;-80
2022/02/17 05:57:24;;;;;;;0.30;0.30;;;10.80;99.90;;;;;;5057722;28;20450;-80
2022/02/17 05:59:51;;;;;;;0.40;0.40;;;10.80;99.90;;;;;;5057170;28;20202;-80
2022/02/17 06:02:19;;;;;;;0.37;0.33;;;10.70;99.90;;;;;;5057387;28;20475;-83
2022/02/17 06:04:46;;;;;;;0.30;0.30;;;10.70;99.90;;;;;;5060651;28;20461;-81
2022/02/17 06:07:13;;;;;;;0.77;0.50;;;10.70;99.90;;;;;;5061245;28;20488;-81
2022/02/17 06:09:40;;;;;;;0.37;0.37;;;10.70;99.90;;;;;;5058972;28;20491;-83
2022/02/17 06:12:08;;;;;;;2.78;0.55;;;10.70;99.90;;;;;;5058680;28;20516;-82
2022/02/17 06:14:35;;;;;;;0.50;0.40;;;10.70;99.90;;;;;;5058367;28;20205;-81
2022/02/17 06:17:02;;;;;;;3.47;0.75;;;10.70;99.90;;;;;;5054385;28;20448;-82
2022/02/17 06:19:30;;;;;;;0.95;0.95;;;10.70;99.90;;;;;;5054308;28;20215;-82
2022/02/17 06:21:57;;;;;;;2.15;0.82;;;10.50;99.90;;;;;;5053456;28;20235;-81
2022/02/17 06:24:24;;;;;;;6.63;1.23;;;10.50;99.90;;;;;;5054204;28;20208;-81
2022/02/17 06:26:50;;;;;;;0.50;0.50;;;10.50;99.90;;;;;;5054947;28;20200;-81
2022/02/17 06:29:17;;;;;;;1.58;0.75;;;10.40;99.90;;;;;;5054043;28;20224;-82
2022/02/17 06:31:44;;;;;;;1.60;0.70;;;10.40;99.90;;;;;;5053242;28;20596;-82
2022/02/17 06:34:11;;;;;;;1.27;0.60;;;10.40;99.90;;;;;;5053527;28;20524;-83
2022/02/17 06:36:39;;;;;;;1.67;1.57;;;10.40;99.90;;;;;;5054564;28;20449;-82
2022/02/17 06:39:06;;;;;;;3.17;1.63;;;10.30;99.90;;;;;;5053613;28;20460;-83
2022/02/17 06:41:33;;;;;;;0.80;0.80;;;10.30;99.90;;;;;;5053775;28;20247;-82
2022/02/17 06:44:00;;;;;;;0.95;0.70;;;10.30;99.90;;;;;;5053340;28;20950;-83
2022/02/17 06:46:26;;;;;;;1.58;0.98;;;10.40;99.90;;;;;;5053626;28;20214;-82
2022/02/17 06:48:53;;;;;;;4.93;1.10;;;10.30;99.90;;;;;;5048945;28;20205;-82
2022/02/17 06:51:20;;;;;;;1.75;0.90;;;10.30;99.90;;;;;;5051010;28;20505;-81
2022/02/17 06:53:48;;;;;;;4.38;0.60;;;10.20;99.90;;;;;;5043329;28;20235;-82
2022/02/17 06:56:15;;;;;;;0.98;0.90;;;10.20;99.90;;;;;;5056290;28;20226;-80
2022/02/17 06:58:42;;;;;;;1.77;0.90;;;10.20;99.90;;;;;;5050489;28;20570;-83
2022/02/17 07:01:09;;;;;;;3.05;0.98;;;10.20;99.90;;;;;;5052935;28;20214;-82
2022/02/17 07:03:36;;;;;;;2.40;1.40;;;10.20;99.90;;;;;;5051397;28;20204;-82
2022/02/17 07:06:02;;;;;;;4.78;1.05;;;10.10;99.90;;;;;;5053639;28;20589;-83
2022/02/17 07:08:29;;;;;;;2.67;0.80;;;10.10;99.90;;;;;;5048517;28;20207;-81
2022/02/17 07:10:59;;;;;;;3.17;1.67;;;10.10;99.90;;;;;;5051839;28;20502;-82
2022/02/17 07:13:28;;;;;;;1.00;1.00;;;10.10;99.90;;;;;;5060274;28;20820;-81
2022/02/17 07:15:55;;;;;;;5.90;1.80;;;10.00;99.90;;;;;;5061856;28;20455;-85
2022/02/17 07:18:23;;;;;;;3.28;1.27;;;10.00;99.90;;;;;;5061698;28;20207;-83
2022/02/17 07:20:51;;;;;;;3.50;1.33;;;9.90;99.90;;;;;;5061097;28;20214;-84
2022/02/17 07:23:20;;;;;;;4.20;1.50;;;9.80;99.90;;;;;;5061289;28;20235;-83
2022/02/17 07:25:47;;;;;;;2.20;1.55;;;9.60;99.90;;;;;;5061999;28;20205;-86
2022/02/17 07:28:16;;;;;;;1.88;0.80;;;9.60;99.90;;;;;;5061064;28;20215;-83
2022/02/17 07:30:44;;;;;;;4.45;1.08;;;9.50;99.90;;;;;;5060627;28;20199;-83
2022/02/17 07:33:11;;;;;;;2.97;1.10;;;9.60;99.90;;;;;;5061310;28;20694;-83
2022/02/17 07:35:38;;;;;;;4.60;1.70;;;9.60;99.90;;;;;;5059418;28;20213;-82
2022/02/17 07:38:04;;;;;;;1.17;1.13;;;9.70;99.90;;;;;;5050771;28;20202;-80
2022/02/17 07:40:31;;;;;;;5.88;2.75;;;9.70;99.90;;;;;;5061981;28;20210;-82
2022/02/17 07:42:58;;;;;;;1.20;1.20;;;9.90;99.90;;;;;;5062005;28;20221;-82
2022/02/17 07:45:26;;;;;;;1.00;1.00;;;9.90;99.90;;;;;;5061920;28;20210;-82
2022/02/17 07:47:54;;;;;;;1.40;1.10;;;9.90;99.90;;;;;;5061949;28;20203;-82
2022/02/17 07:50:25;;;;;;;2.70;1.08;;;9.90;99.90;;;;;;5062052;28;20218;-82
2022/02/17 07:52:51;;;;;;;5.47;1.63;;;10.00;99.90;;;;;;5061696;28;20230;-83
2022/02/17 07:55:18;;;;;;;1.80;1.00;;;10.10;99.90;;;;;;5061854;28;20459;-82
2022/02/17 07:57:45;;;;;;;1.40;0.80;;;10.20;99.90;;;;;;5061507;28;20632;-82
2022/02/17 08:00:13;;;;;;;2.85;1.10;;;10.30;99.90;;;;;;5061066;28;20208;-83
2022/02/17 08:02:42;;;;;;;1.50;0.88;;;10.30;99.90;;;;;;5061718;28;20219;-82
2022/02/17 08:05:10;;;;;;;3.43;1.87;;;10.40;99.90;;;;;;5061054;28;20205;-82
2022/02/17 08:07:38;;;;;;;1.60;0.90;;;10.40;99.90;;;;;;5058003;28;20453;-82
2022/02/17 08:10:05;;;;;;;3.47;1.00;;;10.50;99.90;;;;;;5058524;28;20446;-82
2022/02/17 08:12:32;;;;;;;2.40;1.05;;;10.50;99.90;;;;;;5058669;28;20232;-82
2022/02/17 08:14:59;;;;;;;5.13;1.73;;;10.50;99.90;;;;;;5058550;28;20204;-80
2022/02/17 08:17:26;;;;;;;1.40;1.30;;;10.60;99.90;;;;;;5058295;28;20946;-83
2022/02/17 08:19:54;;;;;;;1.63;1.50;;;10.60;99.90;;;;;;5059169;28;20206;-81
2022/02/17 08:22:21;;;;;;;2.67;1.40;;;10.60;99.90;;;;;;5058089;28;20488;-81
2022/02/17 08:24:48;;;;;;;5.05;1.77;;;10.60;99.90;;;;;;5058477;28;20451;-81
2022/02/17 08:27:14;;;;;;;2.53;1.63;;;10.60;99.90;;;;;;5066043;28;20195;-80
2022/02/17 08:29:42;;;;;;;3.53;1.92;;;10.70;99.90;;;;;;5072276;28;20454;-80
2022/02/17 08:32:09;;;;;;;7.70;1.40;;;10.70;99.90;;;;;;5062018;28;20227;-81
2022/02/17 08:34:36;;;;;;;9.60;2.60;;;10.70;99.90;;;;;;5057155;28;20474;-81
2022/02/17 08:37:04;;;;;;;5.20;2.40;;;10.70;99.90;;;;;;5056659;28;20450;-81
2022/02/17 08:39:31;;;;;;;3.15;1.30;;;10.70;99.90;;;;;;5055693;28;20447;-80
2022/02/17 08:41:58;;;;;;;3.78;1.25;;;10.70;99.90;;;;;;5054912;28;20226;-80
2022/02/17 08:44:24;;;;;;;3.60;3.05;;;10.60;99.90;;;;;;5055804;28;20215;-81
2022/02/17 08:46:51;;;;;;;7.03;2.50;;;10.60;99.90;;;;;;5055160;28;20581;-80
2022/02/17 08:49:18;;;;;;;6.95;2.10;;;10.60;99.90;;;;;;5055038;28;20457;-79
2022/02/17 08:51:45;;;;;;;3.90;1.57;;;10.60;99.90;;;;;;5057067;28;20697;-80
2022/02/17 08:54:13;;;;;;;5.60;2.22;;;10.60;99.90;;;;;;5059071;28;20450;-79
2022/02/17 08:56:39;;;;;;;5.53;1.67;;;10.60;99.90;;;;;;5059053;28;20645;-79
2022/02/17 08:59:06;;;;;;;5.60;3.03;;;10.70;99.90;;;;;;5059496;28;20455;-79
2022/02/17 09:01:33;;;;;;;4.67;2.63;;;10.70;99.90;;;;;;5059349;28;20480;-80
2022/02/17 09:04:00;;;;;;;3.70;1.87;;;10.70;99.90;;;;;;5060181;28;20459;-80
2022/02/17 09:06:27;;;;;;;4.20;1.50;;;10.70;99.90;;;;;;5059874;28;20456;-80
2022/02/17 09:08:53;;;;;;;2.88;1.30;;;10.80;99.90;;;;;;5060263;28;20453;-80
2022/02/17 09:11:21;;;;;;;2.70;1.77;;;10.90;99.90;;;;;;5059150;28;20668;-79
2022/02/17 09:13:48;;;;;;;6.10;2.23;;;10.90;99.90;;;;;;5060399;28;20487;-80
2022/02/17 09:16:15;;;;;;;4.23;2.03;;;10.90;99.90;;;;;;5059712;28;20456;-80
2022/02/17 09:18:42;;;;;;;7.97;2.17;;;10.90;99.90;;;;;;5056165;28;20455;-80
2022/02/17 09:21:09;;;;;;;1.97;1.20;;;11.00;99.90;;;;;;5054696;28;20802;-79
2022/02/17 09:23:36;;;;;;;4.40;2.00;;;11.00;99.10;;;;;;5064042;28;20448;-79
2022/02/17 09:26:03;;;;;;;7.23;1.77;;;11.00;98.80;;;;;;5070478;28;20509;-80
2022/02/17 09:28:31;;;;;;;3.33;1.60;;;10.90;96.40;;;;;;5054126;28;20453;-80
2022/02/17 09:30:58;;;;;;;3.05;2.15;;;10.90;96.70;;;;;;5053645;28;20955;-80
2022/02/17 09:33:25;;;;;;;9.77;3.00;;;10.90;96.50;;;;;;5053897;28;20250;-79
2022/02/17 09:35:53;;;;;;;2.27;2.07;;;10.90;96.70;;;;;;5053966;28;21022;-80
2022/02/17 09:38:19;;;;;;;7.43;3.57;;;10.90;96.70;;;;;;5054153;28;20993;-78
2022/02/17 09:40:47;;;;;;;5.20;3.17;;;10.90;96.30;;;;;;5053272;28;20534;-80
2022/02/17 09:43:15;;;;;;;7.20;2.60;;;10.90;96.90;;;;;;5055432;28;21037;-80
2022/02/17 09:45:46;;;;;;;2.33;2.13;;;11.00;97.00;;;;;;5056944;28;20453;-82
2022/02/17 09:48:13;;;;;;;6.07;1.80;;;11.00;96.90;;;;;;5057450;28;20557;-82
2022/02/17 09:50:40;;;;;;;4.13;1.57;;;10.80;96.20;;;;;;5056577;28;20953;-81
2022/02/17 09:53:07;;;;;;;7.50;2.20;;;10.60;96.60;;;;;;5056783;28;20488;-81
2022/02/17 09:55:34;;;;;;;4.90;2.00;;;10.50;96.60;;;;;;5056588;28;20454;-82
2022/02/17 09:58:01;;;;;;;17.93;2.63;;;10.50;97.20;;;;;;5056961;28;20457;-82
2022/02/17 10:00:28;;;;;;;5.43;3.15;;;10.40;97.70;;;;;;5056506;28;20457;-82
2022/02/17 10:03:23;;;;;;;6.30;3.17;;;10.30;98.50;;;;;;5054113;28;20273;-80
2022/02/17 10:06:04;;;;;;;5.90;1.90;;;10.30;99.30;;;;;;5055764;28;20458;-82
2022/02/17 10:08:31;;;;;;;5.87;2.27;;;10.20;99.90;;;;;;5057106;28;20453;-79
2022/02/17 10:10:58;;;;;;;4.20;2.53;;;10.20;99.90;;;;;;5056635;28;20446;-82
2022/02/17 10:13:25;;;;;;;5.47;3.90;;;10.30;99.90;;;;;;5056301;28;20539;-81
2022/02/17 10:15:53;;;;;;;5.20;2.50;;;10.40;99.90;;;;;;5056853;28;20462;-82
2022/02/17 10:18:24;;;;;;;5.17;2.20;;;10.70;99.90;;;;;;5056744;28;20453;-82
2022/02/17 10:20:53;;;;;;;5.73;1.90;;;10.70;99.80;;;;;;5056890;28;20509;-82
2022/02/17 10:23:20;;;;;;;5.43;1.90;;;10.70;99.90;;;;;;5156323;22;20535;-85
2022/02/17 10:26:05;;;;;;;10.10;2.30;;;10.90;99.90;;;;;;5080705;28;20453;-86
2022/02/17 10:28:38;;;;;;;2.30;1.20;;;11.20;99.80;;;;;;5080028;28;20441;-85
2022/02/17 10:31:05;;;;;;;3.83;3.20;;;11.00;98.50;;;;;;5080147;28;20822;-85
2022/02/17 10:33:42;;;;;;;3.63;2.50;;;11.00;98.20;;;;;;5079587;28;20489;-86
2022/02/17 10:36:10;;;;;;;4.77;1.83;;;10.90;98.40;;;;;;5079493;28;20458;-85
2022/02/17 10:38:36;;;;;;;4.00;1.50;;;11.00;98.10;;;;;;5079857;28;20456;-86
2022/02/17 10:41:04;;;;;;;3.33;1.20;;;11.10;98.10;;;;;;5079878;28;21065;-85
2022/02/17 10:43:33;;;;;;;6.23;1.80;;;11.20;98.10;;;;;;5079471;28;20479;-85
2022/02/17 10:46:07;;;;;;;10.77;3.90;;;11.00;98.20;;;;;;5079619;28;20461;-85
2022/02/17 10:48:35;;;;;;;4.93;2.08;;;10.70;98.30;;;;;;5079831;28;20440;-85
2022/02/17 10:51:09;;;;;;;5.67;1.77;;;10.80;98.80;;;;;;5079289;28;20213;-84
2022/02/17 10:53:40;;;;;;;6.73;3.03;;;10.80;98.50;;;;;;5079531;28;20481;-84
2022/02/17 10:56:08;;;;;;;3.87;3.53;;;10.80;98.40;;;;;;5079438;28;20800;-84
2022/02/17 10:58:38;;;;;;;2.42;1.90;;;10.70;98.30;;;;;;5079196;28;20958;-85
2022/02/17 11:01:07;;;;;;;8.10;2.57;;;10.60;98.60;;;;;;5079737;28;20326;-84
2022/02/17 11:03:36;;;;;;;2.90;1.97;;;10.70;98.30;;;;;;5079328;28;20461;-84
2022/02/17 11:06:04;;;;;;;10.57;2.30;;;10.70;98.40;;;;;;5080095;28;20457;-84
2022/02/17 11:08:32;;;;;;;4.07;2.03;;;10.90;98.50;;;;;;5079857;28;20449;-84
2022/02/17 11:10:59;;;;;;;2.90;2.37;;;11.40;98.20;;;;;;5084086;28;20453;-82
2022/02/17 11:13:27;;;;;;;7.43;2.80;;;11.60;97.10;;;;;;5093992;28;20511;-82
2022/02/17 11:16:07;;;;;;;7.20;2.43;;;11.50;96.30;;;;;;5092604;28;20450;-82
2022/02/17 11:18:37;;;;;;;3.03;1.80;;;11.60;96.20;;;;;;5081450;28;20450;-83
2022/02/17 11:21:14;;;;;;;2.67;1.77;;;12.00;96.10;;;;;;5081090;28;20442;-83
2022/02/17 11:27:04;;;;;;;4.67;3.00;;;12.30;94.30;;;;;;5080069;28;20507;-83
2022/02/17 11:29:34;;;;;;;8.50;3.57;;;11.60;93.20;;;;;;5057341;28;20526;-83
2022/02/17 11:32:02;;;;;;;4.30;1.23;;;11.40;93.20;;;;;;5067009;28;20475;-82
2022/02/17 11:34:37;;;;;;;6.63;2.37;;;11.20;93.20;;;;;;5077595;28;20529;-82
2022/02/17 11:37:44;;;;;;;4.33;1.50;;;11.10;93.40;;;;;;5077408;28;20449;-82
2022/02/17 11:40:16;;;;;;;3.97;2.00;;;11.00;93.80;;;;;;5077627;28;20888;-82
2022/02/17 11:42:46;;;;;;;3.67;1.50;;;11.00;93.80;;;;;;5080139;28;20462;-82
2022/02/17 11:45:16;;;;;;;6.17;2.50;;;11.00;93.80;;;;;;5074881;28;20508;-81
2022/02/17 11:48:04;;;;;;;3.90;2.10;;;11.00;93.50;;;;;;5078375;28;20450;-81
2022/02/17 11:50:41;;;;;;;5.73;2.70;;;11.20;93.40;;;;;;5077620;28;20454;-82
2022/02/17 11:53:25;;;;;;;6.63;3.40;;;11.30;93.10;;;;;;5077732;28;20531;-83
2022/02/17 11:55:52;;;;;;;5.00;1.83;;;11.80;92.80;;;;;;5072896;28;20970;-82
2022/02/17 11:58:47;;;;;;;5.20;2.50;;;11.70;92.00;;;;;;5060612;28;20453;-86
2022/02/17 12:01:41;;;;;;;3.63;2.40;;;11.90;91.80;;;;;;5068653;28;20875;-86
2022/02/17 12:04:24;;;;;;;7.80;3.23;;;12.10;91.50;;;;;;5082803;28;20425;-86
2022/02/17 12:36:13;;;;;;;4.20;2.80;;;12.20;92.70;;;;;;5043957;28;20483;-84
2022/02/17 12:38:40;;;;;;;8.00;2.83;;;12.60;92.60;;;;;;5037722;28;20856;-80
2022/02/17 12:41:09;;;;;;;6.93;2.40;;;12.40;92.00;;;;;;5038141;28;20456;-80
2022/02/17 12:43:38;;;;;;;5.17;2.93;;;12.40;92.10;;;;;;5037754;28;20476;-82
2022/02/17 12:46:08;;;;;;;7.40;2.77;;;12.30;92.30;;;;;;5039159;28;20481;-83
2022/02/17 12:48:36;;;;;;;12.07;4.17;;;12.40;92.00;;;;;;5040802;28;20459;-85
2022/02/17 12:51:03;;;;;;;4.73;2.27;;;12.70;91.50;;;;;;5039774;28;20981;-84
2022/02/17 12:53:45;;;;;;;6.10;2.83;;;12.90;91.30;;;;;;5038245;28;20488;-84
2022/02/17 12:56:19;;;;;;;12.10;3.10;;;13.10;90.50;;;;;;5036759;28;20492;-81
2022/02/17 12:58:47;;;;;;;4.93;2.37;;;13.50;90.30;;;;;;5039100;28;20449;-82
2022/02/17 13:01:22;;;;;;;5.50;3.63;;;13.90;89.20;;;;;;5035552;28;20453;-82
2022/02/17 13:03:49;;;;;;;3.80;2.20;;;13.70;86.50;;;;;;5036226;28;21153;-85
2022/02/17 13:06:19;;;;;;;8.27;2.33;;;13.60;84.70;;;;;;5041718;28;20802;-85
2022/02/17 13:08:47;;;;;;;4.83;3.00;;;13.60;84.90;;;;;;5043883;28;20916;-86
2022/02/17 13:12:02;;;;;;;4.50;2.03;;;13.20;84.50;;;;;;5039397;28;20962;-86
2022/02/17 13:14:32;;;;;;;7.17;2.60;;;12.70;84.60;;;;;;5026036;28;20473;-85
2022/02/17 13:17:08;;;;;;;5.67;3.63;;;12.90;86.00;;;;;;5043962;28;20467;-85
2022/02/17 13:19:38;;;;;;;6.40;2.87;;;13.00;87.30;;;;;;5040661;28;20531;-84
2022/02/17 13:22:17;;;;;;;5.80;2.87;;;13.30;86.80;;;;;;5035363;28;20490;-85
2022/02/17 13:24:52;;;;;;;12.57;3.00;;;13.30;86.40;;;;;;5040258;28;20938;-82
2022/02/17 13:30:07;;;;;;;8.83;2.90;;;13.30;86.40;;;;;;5039857;28;20461;-85
2022/02/17 13:32:39;;;;;;;4.93;2.67;;;13.30;85.70;;;;;;5039261;28;20507;-86
2022/02/17 13:35:15;;;;;;;3.70;2.13;;;13.40;84.00;;;;;;5040341;28;20854;-84
2022/02/17 13:37:43;;;;;;;8.27;3.77;;;13.50;84.10;;;;;;5040792;28;20548;-82
2022/02/17 13:40:12;;;;;;;9.10;5.10;;;13.40;83.50;;;;;;5037249;28;20457;-81
2022/02/17 13:42:39;;;;;;;9.57;3.10;;;13.40;84.20;;;;;;5036288;28;20522;-82
2022/02/17 13:45:20;;;;;;;8.60;3.40;;;13.00;83.10;;;;;;5038508;28;20457;-82
2022/02/17 13:47:50;;;;;;;6.27;4.40;;;13.20;83.00;;;;;;5041868;28;20450;-85
2022/02/17 13:50:19;;;;;;;7.70;3.37;;;12.90;83.30;;;;;;5042436;28;20461;-85
2022/02/17 13:53:00;;;;;;;9.07;2.80;;;13.00;85.00;;;;;;5044213;28;20464;-85
2022/02/17 13:55:29;;;;;;;15.03;4.30;;;13.40;84.00;;;;;;5046511;28;20440;-83
2022/02/17 13:57:58;;;;;;;10.37;3.23;;;13.30;81.20;;;;;;5039039;28;20467;-85
2022/02/17 14:00:29;;;;;;;5.37;3.07;;;12.70;81.80;;;;;;5035986;28;20451;-84
2022/02/17 14:02:56;;;;;;;4.40;3.17;;;13.10;83.00;;;;;;5022618;28;20480;-84
2022/02/17 14:05:29;;;;;;;6.03;2.10;;;12.90;81.70;;;;;;5034339;28;20448;-83
2022/02/17 14:07:56;;;;;;;5.53;2.60;;;12.90;82.00;;;;;;5030653;28;20455;-84
2022/02/17 14:10:23;;;;;;;4.50;2.07;;;12.90;82.60;;;;;;5036343;28;20448;-83
2022/02/17 14:12:50;;;;;;;7.27;2.47;;;12.80;80.90;;;;;;5039909;28;20483;-84
2022/02/17 14:15:16;;;;;;;5.13;2.67;;;12.70;80.10;;;;;;5035628;28;21004;-84
2022/02/17 14:17:44;;;;;;;6.70;1.87;;;12.50;80.60;;;;;;5037347;28;20456;-85
2022/02/17 14:20:12;;;;;;;3.80;3.07;;;12.80;80.40;;;;;;5039403;28;20460;-85